createdAt,value
2023-04-04T00:00:54.099Z,3.40
2023-04-04T00:03:22.274Z,3.92
2023-04-04T00:05:51.691Z,3.03
2023-04-04T00:08:19.881Z,3.58
2023-04-04T00:10:47.877Z,4.20
2023-04-04T00:13:17.308Z,3.60
2023-04-04T00:15:45.362Z,3.58
2023-04-04T00:18:13.515Z,3.97
2023-04-04T00:20:42.020Z,3.60
2023-04-04T00:23:11.113Z,2.72
2023-04-04T00:25:39.533Z,3.80
2023-04-04T00:28:07.590Z,3.85
2023-04-04T00:30:37.972Z,3.55
2023-04-04T00:33:06.520Z,3.75
2023-04-04T00:35:34.756Z,2.60
2023-04-04T00:38:02.836Z,4.00
2023-04-04T00:40:30.990Z,3.65
2023-04-04T00:43:00.623Z,4.05
2023-04-04T00:47:59.676Z,4.00
2023-04-04T00:50:27.836Z,4.32
2023-04-04T00:52:56.209Z,3.35
2023-04-04T00:55:24.504Z,3.65
2023-04-04T00:57:52.834Z,3.90
2023-04-04T01:00:21.409Z,3.63
2023-04-04T01:02:50.033Z,3.47
2023-04-04T01:05:19.909Z,4.40
2023-04-04T01:07:48.368Z,3.28
2023-04-04T01:10:16.620Z,3.30
2023-04-04T01:12:44.941Z,3.20
2023-04-04T01:15:13.095Z,3.42
2023-04-04T01:17:41.943Z,3.40
2023-04-04T01:20:13.373Z,3.17
2023-04-04T01:22:44.408Z,3.47
2023-04-04T01:25:13.092Z,3.67
2023-04-04T01:27:42.571Z,2.57
2023-04-04T01:32:44.769Z,2.20
2023-04-04T01:35:22.846Z,3.55
2023-04-04T01:37:56.893Z,3.33
2023-04-04T01:40:29.168Z,4.00
2023-04-04T01:42:59.210Z,3.97
2023-04-04T01:45:29.655Z,3.78
2023-04-04T01:47:58.284Z,3.88
2023-04-04T01:50:27.125Z,4.00
2023-04-04T01:52:55.234Z,3.13
2023-04-04T01:55:23.533Z,3.60
2023-04-04T01:57:52.244Z,3.70
2023-04-04T02:00:22.121Z,3.35
2023-04-04T02:02:50.700Z,2.92
2023-04-04T02:05:18.862Z,3.50
2023-04-04T02:07:49.999Z,3.80
2023-04-04T02:10:18.279Z,3.42
2023-04-04T02:12:46.723Z,3.00
2023-04-04T02:15:14.944Z,2.40
2023-04-04T02:17:48.747Z,3.03
2023-04-04T02:20:19.343Z,3.80
2023-04-04T02:22:53.609Z,3.67
2023-04-04T02:25:22.260Z,3.40
2023-04-04T02:27:50.546Z,2.63
2023-04-04T02:30:19.437Z,3.42
2023-04-04T02:32:50.344Z,5.65
2023-04-04T02:35:18.563Z,6.95
2023-04-04T02:37:48.023Z,4.30
2023-04-04T02:42:45.168Z,3.83
2023-04-04T02:45:14.632Z,3.00
2023-04-04T02:47:43.586Z,3.67
2023-04-04T02:50:13.187Z,4.60
2023-04-04T02:55:10.430Z,6.05
2023-04-04T02:57:38.474Z,5.75
2023-04-04T03:00:07.721Z,5.38
2023-04-04T03:02:36.028Z,6.30
2023-04-04T03:05:04.354Z,5.22
2023-04-04T03:07:33.800Z,6.57
2023-04-04T03:12:30.090Z,5.57
2023-04-04T03:14:58.156Z,4.57
2023-04-04T03:17:27.049Z,4.13
2023-04-04T03:19:55.156Z,4.88
2023-04-04T03:22:23.185Z,4.90
2023-04-04T03:24:52.700Z,5.40
2023-04-04T03:27:20.752Z,5.30
2023-04-04T03:29:48.783Z,4.72
2023-04-04T03:32:18.138Z,5.63
2023-04-04T03:34:46.483Z,3.95
2023-04-04T03:37:14.542Z,4.20
2023-04-04T03:39:42.596Z,3.95
2023-04-04T03:42:12.102Z,3.75
2023-04-04T03:47:08.984Z,3.30
2023-04-04T03:49:37.110Z,3.95
2023-04-04T03:52:05.544Z,2.90
2023-04-04T03:54:34.573Z,3.17
2023-04-04T03:57:04.164Z,3.67
2023-04-04T03:59:33.602Z,3.60
2023-04-04T04:02:01.900Z,3.58
2023-04-04T04:04:30.039Z,3.92
2023-04-04T04:06:58.539Z,3.55
2023-04-04T04:09:26.584Z,3.53
2023-04-04T04:11:54.646Z,3.38
2023-04-04T04:14:22.740Z,3.50
2023-04-04T04:16:52.250Z,4.15
2023-04-04T04:21:49.056Z,4.65
2023-04-04T04:24:17.321Z,3.00
2023-04-04T04:26:45.444Z,3.17
2023-04-04T04:29:13.525Z,3.05
2023-04-04T04:31:41.745Z,3.35
2023-04-04T04:34:11.253Z,3.35
2023-04-04T04:36:39.308Z,3.70
2023-04-04T04:39:07.664Z,3.80
2023-04-04T04:41:36.707Z,4.65
2023-04-04T04:44:04.793Z,3.65
2023-04-04T04:46:32.936Z,3.42
2023-04-04T04:49:01.131Z,3.25
2023-04-04T04:51:30.568Z,3.95
2023-04-04T04:53:58.654Z,3.58
2023-04-04T04:56:26.709Z,3.50
2023-04-04T04:58:54.747Z,3.63
2023-04-04T05:01:22.862Z,3.75
2023-04-04T05:03:52.913Z,3.22
2023-04-04T05:06:21.739Z,3.47
2023-04-04T05:08:51.192Z,3.55
2023-04-04T05:11:19.226Z,4.07
2023-04-04T05:13:47.240Z,4.10
2023-04-04T05:16:15.368Z,4.32
2023-04-04T05:18:43.456Z,5.03
2023-04-04T05:21:11.467Z,5.10
2023-04-04T05:23:39.687Z,4.20
2023-04-04T05:26:09.103Z,4.50
2023-04-04T05:28:37.240Z,4.53
2023-04-04T05:31:05.445Z,4.40
2023-04-04T05:33:33.520Z,3.35
2023-04-04T05:36:01.819Z,3.55
2023-04-04T05:38:31.009Z,4.13
2023-04-04T05:40:59.048Z,3.53
2023-04-04T05:43:28.639Z,3.10
2023-04-04T05:48:24.642Z,3.60
2023-04-04T05:50:52.706Z,3.60
2023-04-04T05:53:20.973Z,4.93
2023-04-04T05:55:52.500Z,3.92
2023-04-04T05:58:20.585Z,3.92
2023-04-04T06:00:49.981Z,3.20
2023-04-04T06:03:19.672Z,4.50
2023-04-04T06:05:52.300Z,3.40
2023-04-04T06:08:20.479Z,3.20
2023-04-04T06:10:48.681Z,3.83
2023-04-04T06:13:16.857Z,4.25
2023-04-04T06:15:44.962Z,5.57
2023-04-04T06:18:14.485Z,7.78
2023-04-04T06:23:10.495Z,3.17
2023-04-04T06:25:38.923Z,3.83
2023-04-04T06:28:07.915Z,4.35
2023-04-04T06:30:38.299Z,4.53
2023-04-04T06:33:07.041Z,4.00
2023-04-04T06:35:36.478Z,4.43
2023-04-04T06:40:33.590Z,4.28
2023-04-04T06:43:01.868Z,4.03
2023-04-04T06:45:33.313Z,4.10
2023-04-04T06:48:01.520Z,3.78
2023-04-04T06:50:32.238Z,4.10
2023-04-04T06:53:02.146Z,3.70
2023-04-04T06:55:30.256Z,4.82
2023-04-04T06:57:58.319Z,4.72
2023-04-04T07:00:26.555Z,3.75
2023-04-04T07:02:59.880Z,3.47
2023-04-04T07:05:28.024Z,3.65
2023-04-04T07:07:57.124Z,4.07
2023-04-04T07:10:27.041Z,4.13
2023-04-04T07:12:55.446Z,3.92
2023-04-04T07:15:23.544Z,3.28
2023-04-04T07:17:51.659Z,3.85
2023-04-04T07:20:19.967Z,3.30
2023-04-04T07:22:49.500Z,3.60
2023-04-04T07:27:46.888Z,3.28
2023-04-04T07:30:16.339Z,3.13
2023-04-04T07:35:12.633Z,3.22
2023-04-04T07:37:40.675Z,3.28
2023-04-04T07:40:12.398Z,2.97
2023-04-04T07:42:46.968Z,4.25
2023-04-04T07:45:15.550Z,3.47
2023-04-04T07:47:45.405Z,2.80
2023-04-04T07:50:13.881Z,3.58
2023-04-04T07:52:42.104Z,3.45
2023-04-04T07:55:10.689Z,3.60
2023-04-04T07:57:39.919Z,3.22
2023-04-04T08:00:11.726Z,3.92
2023-04-04T08:02:40.312Z,3.50
2023-04-04T08:05:09.937Z,2.53
2023-04-04T08:10:07.303Z,5.15
2023-04-04T08:12:35.409Z,4.50
2023-04-04T08:15:03.546Z,3.88
2023-04-04T08:17:33.227Z,3.40
2023-04-04T08:20:01.319Z,2.60
2023-04-04T08:22:29.381Z,4.13
2023-04-04T08:24:57.660Z,3.53
2023-04-04T08:27:25.827Z,2.88
2023-04-04T08:29:53.872Z,3.63
2023-04-04T08:32:22.216Z,3.40
2023-04-04T08:34:52.161Z,2.80
2023-04-04T08:37:20.221Z,2.85
2023-04-04T08:39:48.289Z,3.60
2023-04-04T08:42:20.566Z,3.35
2023-04-04T08:44:50.849Z,3.20
2023-04-04T08:47:19.742Z,2.88
2023-04-04T08:49:48.862Z,2.85
2023-04-04T08:52:21.639Z,3.28
2023-04-04T08:54:51.933Z,2.83
2023-04-04T08:57:20.090Z,2.97
2023-04-04T08:59:48.650Z,3.35
2023-04-04T09:02:24.442Z,3.17
2023-04-04T09:05:05.440Z,3.22
2023-04-04T09:07:38.813Z,3.17
2023-04-04T09:10:10.865Z,3.10
2023-04-04T09:12:42.972Z,3.40
2023-04-04T09:15:12.213Z,3.05
2023-04-04T09:17:40.416Z,3.58
2023-04-04T09:20:40.570Z,3.33
2023-04-04T09:23:14.045Z,3.17
2023-04-04T09:26:02.564Z,3.00
2023-04-04T09:28:32.163Z,2.47
2023-04-04T09:31:03.044Z,3.30
2023-04-04T09:33:34.264Z,3.88
2023-04-04T09:36:07.796Z,3.78
2023-04-04T09:38:38.915Z,2.90
2023-04-04T09:41:09.734Z,2.95
2023-04-04T09:43:38.484Z,3.38
2023-04-04T09:46:07.811Z,3.30
2023-04-04T09:48:37.714Z,2.90
2023-04-04T09:51:06.939Z,3.33
2023-04-04T09:53:42.128Z,3.55
2023-04-04T09:56:10.825Z,3.65
2023-04-04T09:58:46.378Z,3.22
2023-04-04T10:01:19.413Z,3.30
2023-04-04T10:03:53.559Z,3.22
2023-04-04T10:06:22.590Z,3.50
2023-04-04T10:08:52.172Z,3.30
2023-04-04T10:13:58.491Z,3.15
2023-04-04T10:16:27.347Z,3.25
2023-04-04T10:18:55.763Z,3.00
2023-04-04T10:21:25.024Z,3.40
2023-04-04T10:23:55.298Z,3.30
2023-04-04T10:26:25.972Z,3.80
2023-04-04T10:28:54.982Z,3.70
2023-04-04T10:31:25.255Z,3.28
2023-04-04T10:34:05.861Z,3.20
2023-04-04T10:36:41.685Z,4.43
2023-04-04T10:39:16.178Z,3.50
2023-04-04T10:41:46.697Z,3.20
2023-04-04T10:44:24.672Z,3.90
2023-04-04T10:46:55.441Z,3.35
2023-04-04T10:49:24.122Z,4.85
2023-04-04T10:51:56.984Z,3.90
2023-04-04T10:54:29.081Z,3.08
2023-04-04T10:57:01.481Z,2.90
2023-04-04T10:59:29.700Z,3.25
2023-04-04T11:01:59.445Z,3.33
2023-04-04T11:04:34.106Z,3.10
2023-04-04T11:07:17.202Z,3.45
2023-04-04T11:09:54.426Z,3.60
2023-04-04T11:12:24.295Z,3.35
2023-04-04T11:15:10.271Z,3.17
2023-04-04T11:18:21.499Z,3.40
2023-04-04T11:20:55.868Z,2.90
2023-04-04T11:23:24.387Z,2.90
2023-04-04T11:25:54.861Z,3.30
2023-04-04T11:28:45.811Z,3.10
2023-04-04T11:31:28.959Z,3.42
2023-04-04T11:33:59.474Z,3.40
2023-04-04T11:36:55.230Z,3.17
2023-04-04T11:39:27.319Z,3.10
2023-04-04T11:42:03.520Z,4.22
2023-04-04T11:44:33.357Z,3.53
2023-04-04T11:47:05.215Z,4.30
2023-04-04T11:49:36.503Z,3.50
2023-04-04T11:52:06.826Z,3.17
2023-04-04T11:54:35.262Z,3.35
2023-04-04T11:57:06.797Z,3.95
2023-04-04T11:59:35.680Z,3.72
2023-04-04T12:02:03.922Z,3.55
2023-04-04T12:04:32.954Z,2.80
2023-04-04T12:07:03.491Z,3.05
2023-04-04T12:09:31.585Z,3.47
2023-04-04T12:11:59.689Z,3.15
2023-04-04T12:14:29.103Z,3.70
2023-04-04T12:16:59.467Z,3.75
2023-04-04T12:19:29.712Z,4.03
2023-04-04T12:21:59.135Z,3.17
2023-04-04T12:24:27.681Z,3.50
2023-04-04T12:26:56.092Z,3.40
2023-04-04T12:29:27.451Z,3.15
2023-04-04T12:31:58.122Z,3.20
2023-04-04T12:37:04.769Z,3.40
2023-04-04T12:39:32.911Z,3.70
2023-04-04T12:42:03.575Z,3.50
2023-04-04T12:44:33.074Z,3.40
2023-04-04T12:49:32.889Z,3.33
2023-04-04T12:54:35.128Z,3.80
2023-04-04T12:57:05.644Z,3.58
2023-04-04T12:59:35.295Z,4.28
2023-04-04T13:02:07.977Z,3.50
2023-04-04T13:04:36.295Z,3.85
2023-04-04T13:07:04.989Z,3.97
2023-04-04T13:09:35.720Z,3.15
2023-04-04T13:12:08.513Z,3.75
2023-04-04T13:14:59.660Z,3.60
2023-04-04T13:17:44.141Z,3.70
2023-04-04T13:20:12.662Z,3.45
2023-04-04T13:22:42.192Z,3.25
2023-04-04T13:25:11.618Z,3.45
2023-04-04T13:30:10.361Z,3.13
2023-04-04T13:32:40.886Z,2.88
2023-04-04T13:37:37.272Z,4.03
2023-04-04T13:40:06.129Z,3.55
2023-04-04T13:42:35.376Z,3.20
2023-04-04T13:45:03.518Z,3.15
2023-04-04T13:47:31.571Z,3.58
2023-04-04T13:50:01.014Z,3.67
2023-04-04T13:54:57.453Z,3.47
2023-04-04T13:57:27.100Z,3.50
2023-04-04T13:59:56.351Z,2.95
2023-04-04T14:02:24.609Z,2.97
2023-04-04T14:04:52.797Z,3.70
2023-04-04T14:07:22.239Z,3.00
2023-04-04T14:12:18.147Z,2.70
2023-04-04T14:14:46.260Z,3.45
2023-04-04T14:17:14.288Z,2.97
2023-04-04T14:19:44.320Z,2.75
2023-04-04T14:22:12.426Z,3.25
2023-04-04T14:24:41.856Z,3.17
2023-04-04T14:29:38.557Z,4.45
2023-04-04T14:32:07.697Z,4.13
2023-04-04T14:34:35.761Z,3.88
2023-04-04T14:37:04.009Z,3.35
2023-04-04T14:39:33.138Z,3.80
2023-04-04T14:42:02.549Z,3.70
2023-04-04T14:47:00.538Z,3.90
2023-04-04T14:49:28.670Z,4.00
2023-04-04T14:51:56.793Z,3.47
2023-04-04T14:54:24.853Z,3.80
2023-04-04T14:56:52.924Z,3.63
2023-04-04T14:59:22.431Z,4.15
2023-04-04T15:04:18.621Z,3.65
2023-04-04T15:06:46.911Z,3.33
2023-04-04T15:09:16.802Z,3.35
2023-04-04T15:11:44.872Z,3.28
2023-04-04T15:14:12.953Z,3.70
2023-04-04T15:16:42.431Z,3.88
2023-04-04T15:21:39.371Z,3.45
2023-04-04T15:24:07.725Z,3.63
2023-04-04T15:26:35.834Z,3.53
2023-04-04T15:29:04.793Z,3.25
2023-04-04T15:31:33.032Z,2.80
2023-04-04T15:34:02.456Z,3.58
2023-04-04T15:36:31.338Z,3.40
2023-04-04T15:38:59.441Z,2.80
2023-04-04T15:41:27.458Z,3.25
2023-04-04T15:43:55.514Z,3.78
2023-04-04T15:46:23.664Z,3.30
2023-04-04T15:48:52.466Z,3.38
2023-04-04T15:51:22.133Z,4.07
2023-04-04T15:56:18.060Z,3.55
2023-04-04T15:58:46.165Z,3.42
2023-04-04T16:01:14.316Z,3.67
2023-04-04T16:03:44.815Z,3.90
2023-04-04T16:06:13.866Z,3.67
2023-04-04T16:08:44.458Z,3.78
2023-04-04T16:11:12.888Z,3.63
2023-04-04T16:13:40.957Z,4.15
2023-04-04T16:16:09.148Z,4.38
2023-04-04T16:18:37.938Z,4.78
2023-04-04T16:21:06.464Z,3.28
2023-04-04T16:23:34.652Z,4.32
2023-04-04T16:26:04.107Z,4.50
2023-04-04T16:28:32.200Z,4.15
2023-04-04T16:31:00.425Z,3.88
2023-04-04T16:33:28.560Z,4.18
2023-04-04T16:35:56.649Z,3.60
2023-04-04T16:38:24.733Z,3.90
2023-04-04T16:40:52.810Z,3.58
2023-04-04T16:43:22.179Z,4.15
2023-04-04T16:45:50.461Z,3.35
2023-04-04T16:48:18.519Z,3.35
2023-04-04T16:50:46.637Z,3.70
2023-04-04T16:53:14.720Z,4.05
2023-04-04T16:55:42.814Z,4.13
2023-04-04T16:58:10.861Z,3.92
2023-04-04T17:00:40.565Z,4.28
2023-04-04T17:03:08.767Z,3.97
2023-04-04T17:05:36.867Z,4.07
2023-04-04T17:08:05.192Z,4.38
2023-04-04T17:10:33.258Z,4.30
2023-04-04T17:13:02.047Z,4.50
2023-04-04T17:15:30.247Z,4.97
2023-04-04T17:17:59.671Z,4.32
2023-04-04T17:20:29.833Z,4.47
2023-04-04T17:22:58.960Z,4.20
2023-04-04T17:25:29.153Z,4.03
2023-04-04T17:27:57.650Z,4.15
2023-04-04T17:30:26.483Z,4.30
2023-04-04T17:32:55.194Z,4.13
2023-04-04T17:35:24.689Z,4.05
2023-04-04T17:37:52.923Z,4.28
2023-04-04T17:40:21.373Z,3.78
2023-04-04T17:42:49.415Z,4.43
2023-04-04T17:45:19.294Z,5.25
2023-04-04T17:47:47.395Z,5.22
2023-04-04T17:50:15.894Z,6.15
2023-04-04T17:52:45.652Z,5.03
2023-04-04T17:55:13.798Z,4.50
2023-04-04T17:57:44.845Z,4.95
2023-04-04T18:00:15.551Z,4.70
2023-04-04T18:02:43.714Z,4.53
2023-04-04T18:05:12.673Z,5.32
2023-04-04T18:07:41.279Z,7.43
2023-04-04T18:10:11.274Z,5.53
2023-04-04T18:12:39.439Z,7.18
2023-04-04T18:15:08.609Z,7.20
2023-04-04T18:17:36.822Z,6.65
2023-04-04T18:20:05.598Z,6.18
2023-04-04T18:22:34.577Z,5.88
2023-04-04T18:25:02.614Z,6.28
2023-04-04T18:27:32.234Z,6.88
2023-04-04T18:32:29.126Z,6.55
2023-04-04T18:34:57.263Z,7.43
2023-04-04T18:37:25.337Z,8.93
2023-04-04T18:39:53.579Z,9.60
2023-04-04T18:42:21.715Z,8.52
2023-04-04T18:44:53.322Z,9.32
2023-04-04T18:47:22.338Z,10.00
2023-04-04T18:49:50.569Z,10.68
2023-04-04T18:52:18.630Z,10.02
2023-04-04T18:54:46.937Z,9.50
2023-04-04T18:57:15.336Z,9.45
2023-04-04T18:59:43.597Z,10.32
2023-04-04T19:02:13.040Z,10.77
2023-04-04T19:04:41.980Z,10.80
2023-04-04T19:07:12.637Z,15.02
2023-04-04T19:09:42.441Z,15.50
2023-04-04T19:12:10.748Z,14.60
2023-04-04T19:14:38.995Z,14.52
2023-04-04T19:17:07.234Z,13.57
2023-04-04T19:19:36.706Z,12.93
2023-04-04T19:22:05.149Z,16.98
2023-04-04T19:24:33.220Z,14.93
2023-04-04T19:27:02.535Z,14.95
2023-04-04T19:29:32.054Z,15.13
2023-04-04T19:32:03.605Z,16.25
2023-04-04T19:34:32.408Z,18.20
2023-04-04T19:37:01.873Z,16.55
2023-04-04T19:42:02.589Z,12.48
2023-04-04T19:44:31.351Z,14.50
2023-04-04T19:47:01.022Z,14.98
2023-04-04T19:49:30.609Z,15.70
2023-04-04T19:54:29.954Z,16.95
2023-04-04T19:57:03.465Z,14.13
2023-04-04T20:00:01.741Z,15.27
2023-04-04T20:02:57.009Z,11.63
2023-04-04T20:05:57.924Z,11.48
2023-04-04T20:08:33.974Z,10.50
2023-04-04T20:11:03.659Z,9.93
2023-04-04T20:13:32.758Z,9.60
2023-04-04T20:16:06.324Z,9.90
2023-04-04T20:18:35.633Z,9.73
2023-04-04T20:21:07.355Z,10.25
2023-04-04T20:23:45.905Z,10.20
2023-04-04T20:26:43.714Z,9.52
2023-04-04T20:29:13.913Z,9.27
2023-04-04T20:31:44.743Z,9.55
2023-04-04T20:34:32.919Z,10.50
2023-04-04T20:37:02.080Z,9.88
2023-04-04T20:39:40.512Z,10.75
2023-04-04T20:42:34.856Z,9.88
2023-04-04T20:45:14.412Z,10.40
2023-04-04T20:50:46.241Z,8.32
2023-04-04T20:53:20.994Z,9.10
2023-04-04T20:55:53.334Z,8.75
2023-04-04T20:58:32.162Z,8.13
2023-04-04T21:01:01.701Z,8.98
2023-04-04T21:03:49.938Z,7.35
2023-04-04T21:06:18.124Z,7.68
2023-04-04T21:08:47.684Z,7.88
2023-04-04T21:13:48.740Z,6.57
2023-04-04T21:18:46.346Z,4.65
2023-04-04T21:21:18.542Z,5.90
2023-04-04T21:23:52.513Z,4.72
2023-04-04T21:26:29.507Z,5.20
2023-04-04T21:29:00.812Z,4.88
2023-04-04T21:31:35.576Z,5.20
2023-04-04T21:34:09.597Z,4.90
2023-04-04T21:36:37.740Z,5.75
2023-04-04T21:39:10.668Z,5.60
2023-04-04T21:41:38.790Z,5.55
2023-04-04T21:44:09.948Z,5.70
2023-04-04T21:46:39.438Z,5.85
2023-04-04T21:49:08.550Z,5.30
2023-04-04T21:51:37.298Z,4.78
2023-04-04T21:54:05.649Z,6.03
2023-04-04T21:56:33.853Z,5.88
2023-04-04T21:59:03.947Z,5.55
2023-04-04T22:01:33.524Z,5.25
2023-04-04T22:06:30.809Z,5.35
2023-04-04T22:09:00.060Z,6.03
2023-04-04T22:11:29.040Z,4.97
2023-04-04T22:14:04.370Z,5.93
2023-04-04T22:16:39.086Z,6.07
2023-04-04T22:19:10.789Z,5.43
2023-04-04T22:21:39.183Z,5.47
2023-04-04T22:24:09.975Z,4.80
2023-04-04T22:26:41.628Z,5.03
2023-04-04T22:29:09.920Z,5.18
2023-04-04T22:31:39.355Z,5.53
2023-04-04T22:34:07.504Z,5.22
2023-04-04T22:36:38.552Z,5.03
2023-04-04T22:39:06.625Z,5.75
2023-04-04T22:41:34.695Z,5.45
2023-04-04T22:44:02.770Z,5.55
2023-04-04T22:46:32.183Z,7.25
2023-04-04T22:49:06.640Z,10.10
2023-04-04T22:51:43.117Z,9.45
2023-04-04T22:54:12.921Z,10.70
2023-04-04T22:56:41.708Z,10.40
2023-04-04T22:59:09.847Z,8.48
2023-04-04T23:01:38.231Z,9.95
2023-04-04T23:04:08.032Z,9.10
2023-04-04T23:06:38.343Z,8.95
2023-04-04T23:09:07.740Z,8.35
2023-04-04T23:11:36.441Z,8.50
2023-04-04T23:14:08.619Z,6.82
2023-04-04T23:16:37.206Z,8.60
2023-04-04T23:19:07.512Z,9.52
2023-04-04T23:21:36.593Z,9.00
2023-04-04T23:24:04.978Z,9.18
2023-04-04T23:26:33.517Z,9.48
2023-04-04T23:29:02.089Z,8.20
2023-04-04T23:31:30.652Z,12.15
2023-04-04T23:33:59.785Z,9.48
2023-04-04T23:36:29.386Z,9.75
2023-04-04T23:38:57.494Z,10.70
2023-04-04T23:41:26.279Z,8.68
2023-04-04T23:43:54.562Z,8.70
2023-04-04T23:46:23.808Z,10.75
2023-04-04T23:48:51.944Z,9.85
2023-04-04T23:51:20.016Z,9.70
2023-04-04T23:53:49.434Z,7.65
2023-04-04T23:58:46.121Z,9.05
